Time;durP1;ratioP1;P1;durP2;ratioP2;P2;SDS_P1;SDS_P2;PMS_P1;PMS_P2;Temp;Humidity;BMP_temperature;BMP_pressure;BME280_temperature;BME280_humidity;BME280_pressure;Samples;Min_cycle;Max_cycle;Signal;HPM_P1;HPM_P2
2023/01/10 00:01:23;;;;;;;12.85;6.93;;;;;;;5.93;100.00;97381.69;4452770;32;20097;-65
2023/01/10 00:03:51;;;;;;;9.93;6.00;;;;;;;5.94;100.00;97383.34;4452760;32;20101;-65
2023/01/10 00:06:18;;;;;;;12.13;6.85;;;;;;;6.00;100.00;97377.59;4452629;32;20105;-65
2023/01/10 00:08:45;;;;;;;10.35;6.07;;;;;;;6.08;100.00;97375.09;4452680;32;20606;-65
2023/01/10 00:13:58;;;;;;;9.38;5.85;;;;;;;6.05;100.00;97372.78;4452642;32;20081;-65
2023/01/10 00:16:25;;;;;;;11.35;6.30;;;;;;;5.93;100.00;97373.91;4452398;32;20085;-65
2023/01/10 00:18:52;;;;;;;10.88;6.85;;;;;;;5.87;100.00;97373.50;4452669;32;20176;-65
2023/01/10 00:21:20;;;;;;;11.27;6.50;;;;;;;5.84;100.00;97372.97;4452245;32;20524;-65
2023/01/10 00:23:47;;;;;;;9.77;6.15;;;;;;;5.86;100.00;97369.28;4452507;32;20467;-65
2023/01/10 00:26:15;;;;;;;12.02;6.37;;;;;;;5.90;100.00;97367.19;4454281;32;20101;-65
2023/01/10 00:28:42;;;;;;;10.70;5.60;;;;;;;5.92;100.00;97360.09;4454615;32;20154;-65
2023/01/10 00:31:10;;;;;;;10.07;6.03;;;;;;;5.90;100.00;97356.00;4454627;32;20598;-65
2023/01/10 00:33:38;;;;;;;10.20;5.47;;;;;;;5.81;100.00;97355.06;4454681;32;20080;-65
2023/01/10 00:36:07;;;;;;;7.90;5.18;;;;;;;5.80;100.00;97349.03;4454618;32;20443;-65
2023/01/10 00:38:34;;;;;;;9.35;5.47;;;;;;;5.82;100.00;97343.72;4454552;32;20490;-65
2023/01/10 00:41:02;;;;;;;8.48;5.00;;;;;;;5.83;100.00;97343.56;4454657;32;20158;-65
2023/01/10 00:43:56;;;;;;;8.60;5.12;;;;;;;5.78;100.00;97343.16;4455005;32;20109;-65
2023/01/10 00:46:23;;;;;;;7.87;4.80;;;;;;;5.80;100.00;97346.44;4454560;32;20085;-65
2023/01/10 00:48:51;;;;;;;6.93;4.70;;;;;;;5.79;100.00;97354.38;4454563;32;20165;-65
2023/01/10 00:51:18;;;;;;;6.30;4.03;;;;;;;5.76;100.00;97349.47;4454570;32;20116;-64
2023/01/10 00:53:45;;;;;;;7.05;4.30;;;;;;;5.71;100.00;97352.50;4454386;32;20446;-64
2023/01/10 00:56:13;;;;;;;7.22;4.22;;;;;;;5.73;100.00;97354.97;4454534;32;20105;-64
2023/01/10 00:58:40;;;;;;;5.35;3.55;;;;;;;5.73;100.00;97355.75;4454335;32;20140;-65
2023/01/10 01:01:07;;;;;;;5.72;3.70;;;;;;;5.58;100.00;97359.78;4454292;32;20122;-64
2023/01/10 01:03:34;;;;;;;4.03;3.03;;;;;;;5.54;100.00;97348.03;4454537;32;20176;-65
2023/01/10 01:06:05;;;;;;;5.47;3.35;;;;;;;5.47;100.00;97345.19;4454543;32;20124;-65
2023/01/10 01:08:32;;;;;;;5.65;3.20;;;;;;;5.46;100.00;97344.34;4454604;32;20084;-64
2023/01/10 01:10:59;;;;;;;4.62;2.97;;;;;;;5.46;100.00;97352.12;4454379;32;20454;-65
2023/01/10 01:13:26;;;;;;;4.57;3.20;;;;;;;5.29;100.00;97352.84;4454312;32;20694;-65
2023/01/10 01:15:58;;;;;;;3.47;2.62;;;;;;;5.29;100.00;97345.88;4454528;32;20101;-64
2023/01/10 01:18:26;;;;;;;4.68;3.00;;;;;;;5.19;100.00;97345.06;4454266;32;20528;-65
2023/01/10 01:20:55;;;;;;;3.50;2.60;;;;;;;5.28;100.00;97349.47;4454369;32;20100;-65
2023/01/10 01:23:23;;;;;;;3.72;2.70;;;;;;;5.22;100.00;97354.38;4454067;32;20600;-65
2023/01/10 01:25:52;;;;;;;2.58;2.05;;;;;;;5.22;100.00;97357.78;4454226;32;20202;-65
2023/01/10 01:28:20;;;;;;;4.22;2.40;;;;;;;5.11;100.00;97350.94;4453917;32;20431;-65
2023/01/10 01:30:48;;;;;;;3.30;2.17;;;;;;;5.20;100.00;97348.50;4454280;32;20164;-65
2023/01/10 01:33:16;;;;;;;3.08;2.22;;;;;;;5.14;100.00;97345.47;4454461;32;20446;-65
2023/01/10 01:35:44;;;;;;;3.55;2.45;;;;;;;5.06;100.00;97345.38;4453992;32;20156;-65
2023/01/10 01:38:12;;;;;;;5.15;2.50;;;;;;;5.03;100.00;97345.62;4453606;32;20101;-65
2023/01/10 01:40:40;;;;;;;2.75;2.10;;;;;;;5.05;100.00;97348.91;4454211;32;20105;-65
2023/01/10 01:43:22;;;;;;;3.05;2.20;;;;;;;5.03;100.00;97348.22;4454167;32;20089;-65
2023/01/10 01:45:49;;;;;;;4.78;2.00;;;;;;;4.99;100.00;97352.06;4454250;32;20359;-65
2023/01/10 01:48:24;;;;;;;2.60;1.90;;;;;;;4.94;100.00;97349.06;4454038;32;20206;-65
2023/01/10 01:50:58;;;;;;;2.90;1.95;;;;;;;4.83;100.00;97356.97;4454287;32;20140;-65
2023/01/10 01:53:31;;;;;;;27.02;3.05;;;;;;;4.85;100.00;97357.66;4454170;32;20179;-66
2023/01/10 01:56:02;;;;;;;2.60;2.10;;;;;;;4.78;100.00;97365.16;4454586;32;20136;-66
2023/01/10 01:58:45;;;;;;;2.10;1.87;;;;;;;4.86;100.00;97357.53;4454383;32;20086;-66
2023/01/10 02:01:14;;;;;;;2.65;1.70;;;;;;;4.68;100.00;97361.72;4440071;32;20168;-66
2023/01/10 02:03:42;;;;;;;2.47;1.92;;;;;;;4.70;100.00;97365.03;4440196;32;20168;-66
2023/01/10 02:06:09;;;;;;;2.35;1.60;;;;;;;4.70;100.00;97372.81;4454019;32;20104;-66
2023/01/10 02:08:39;;;;;;;6.10;2.20;;;;;;;4.65;100.00;97380.16;4440170;32;20109;-66
2023/01/10 02:11:10;;;;;;;2.92;2.10;;;;;;;4.61;100.00;97377.00;4440018;32;20121;-66
2023/01/10 02:13:40;;;;;;;2.30;1.80;;;;;;;4.58;100.00;97374.69;4453864;32;20112;-66
2023/01/10 02:16:07;;;;;;;2.83;2.28;;;;;;;4.58;100.00;97375.50;4439906;32;20093;-66
2023/01/10 02:18:36;;;;;;;2.62;1.85;;;;;;;4.52;100.00;97385.59;4453812;32;20101;-67
2023/01/10 02:21:14;;;;;;;5.03;2.95;;;;;;;4.54;100.00;97381.09;4439975;32;20471;-66
2023/01/10 02:23:58;;;;;;;3.62;2.42;;;;;;;4.58;100.00;97375.50;4453899;32;20084;-66
2023/01/10 02:26:28;;;;;;;3.20;2.08;;;;;;;4.47;100.00;97367.84;4439816;32;20149;-67
2023/01/10 02:29:07;;;;;;;1.98;1.35;;;;;;;4.54;100.00;97363.78;4453963;32;20096;-67
2023/01/10 02:31:58;;;;;;;2.72;1.55;;;;;;;5.35;100.00;97370.47;4454107;32;20115;-66
2023/01/10 02:34:34;;;;;;;4.00;1.58;;;;;;;5.35;100.00;97377.47;4439752;32;20081;-67
2023/01/10 02:37:39;;;;;;;3.00;1.73;;;;;;;5.39;100.00;97366.66;4439909;32;20518;-67
2023/01/10 02:40:17;;;;;;;2.35;1.50;;;;;;;5.23;100.00;97374.19;4453861;32;20163;-67
2023/01/10 02:42:57;;;;;;;2.60;1.60;;;;;;;5.23;100.00;97366.41;4440092;32;20127;-67
2023/01/10 02:45:29;;;;;;;2.10;1.50;;;;;;;5.10;100.00;97371.84;4453735;32;20085;-67
2023/01/10 02:47:57;;;;;;;1.65;1.45;;;;;;;5.19;100.00;97359.84;4453907;32;20591;-67
2023/01/10 02:50:44;;;;;;;2.10;1.40;;;;;;;5.07;100.00;97364.34;4453985;32;20159;-67
2023/01/10 02:53:23;;;;;;;1.55;1.15;;;;;;;5.03;100.00;97369.00;4439747;32;20128;-67
2023/01/10 02:56:22;;;;;;;2.08;1.58;;;;;;;5.06;100.00;97366.13;4453686;32;20458;-67
2023/01/10 02:59:23;;;;;;;3.65;1.17;;;;;;;4.99;100.00;97372.81;4440019;32;20093;-68
2023/01/10 03:02:13;;;;;;;1.73;1.58;;;;;;;4.87;100.00;97379.91;4404878;32;20098;-67
2023/01/10 03:04:53;;;;;;;1.75;1.60;;;;;;;4.98;100.00;97381.53;4392721;32;20181;-67
2023/01/10 03:07:28;;;;;;;2.20;1.27;;;;;;;4.98;100.00;97387.56;4392606;32;20456;-67
2023/01/10 03:10:05;;;;;;;2.87;1.90;;;;;;;4.88;100.00;97391.94;4412765;32;20098;-68
2023/01/10 03:12:43;;;;;;;2.75;1.60;;;;;;;5.08;100.00;97389.34;4420271;32;20635;-67
2023/01/10 03:15:14;;;;;;;3.45;1.83;;;;;;;5.10;100.00;97380.47;4407563;32;20166;-68
2023/01/10 03:17:42;;;;;;;1.80;1.58;;;;;;;5.00;100.00;97382.25;4407652;32;20143;-68
2023/01/10 03:20:10;;;;;;;2.22;1.70;;;;;;;5.02;100.00;97382.13;4407496;32;20642;-68
2023/01/10 03:22:38;;;;;;;2.08;1.87;;;;;;;5.09;100.00;97384.03;4408255;32;20141;-68
2023/01/10 03:25:07;;;;;;;2.20;1.40;;;;;;;5.01;100.00;97385.66;4404935;32;20132;-68
2023/01/10 03:27:45;;;;;;;1.67;1.40;;;;;;;4.95;100.00;97377.47;4404868;32;20164;-67
2023/01/10 03:30:25;;;;;;;1.62;1.00;;;;;;;4.96;100.00;97384.28;4404628;32;20094;-67
2023/01/10 03:32:55;;;;;;;1.15;0.93;;;;;;;4.91;100.00;97383.06;4404785;32;20110;-67
2023/01/10 03:35:30;;;;;;;2.40;1.37;;;;;;;4.94;100.00;97393.19;4392163;32;20098;-67
2023/01/10 03:38:06;;;;;;;2.25;1.30;;;;;;;4.92;100.00;97392.47;4414700;32;20113;-67
2023/01/10 03:40:54;;;;;;;1.83;1.40;;;;;;;4.96;100.00;97386.06;4439202;32;20093;-67
2023/01/10 03:46:40;;;;;;;1.50;1.10;;;;;;;4.79;100.00;97397.94;4452905;32;20156;-68
2023/01/10 03:49:08;;;;;;;1.40;1.30;;;;;;;4.91;100.00;97390.84;4439140;32;20526;-67
2023/01/10 03:51:37;;;;;;;3.58;1.37;;;;;;;4.75;100.00;97389.63;4438896;32;20109;-67
2023/01/10 03:54:04;;;;;;;1.55;1.20;;;;;;;4.83;100.00;97399.31;4453172;32;20105;-67
2023/01/10 03:56:45;;;;;;;2.05;1.35;;;;;;;5.00;100.00;97396.97;4438668;32;20158;-67
2023/01/10 03:59:13;;;;;;;1.83;1.20;;;;;;;4.87;100.00;97403.25;4452948;32;20077;-67
2023/01/10 04:01:40;;;;;;;1.50;1.33;;;;;;;4.69;100.00;97397.91;4454847;32;20081;-67
2023/01/10 04:04:07;;;;;;;1.80;0.90;;;;;;;4.82;100.00;97399.44;4454915;32;20097;-67
2023/01/10 04:06:35;;;;;;;1.08;0.80;;;;;;;4.89;100.00;97408.31;4455108;32;20150;-67
2023/01/10 04:09:02;;;;;;;0.75;0.60;;;;;;;4.89;100.00;97410.91;4454855;32;20109;-67
2023/01/10 04:11:29;;;;;;;0.62;0.55;;;;;;;4.86;100.00;97414.63;4454839;32;20458;-67
2023/01/10 04:13:56;;;;;;;1.55;1.00;;;;;;;4.76;100.00;97424.97;4454849;32;20101;-67
2023/01/10 04:16:24;;;;;;;0.73;0.62;;;;;;;4.88;100.00;97414.47;4454853;32;20115;-67
2023/01/10 04:18:51;;;;;;;0.80;0.60;;;;;;;4.82;100.00;97409.81;4454925;32;20081;-67
2023/01/10 04:21:18;;;;;;;1.27;0.70;;;;;;;4.78;100.00;97401.47;4454356;32;20159;-67
2023/01/10 04:23:45;;;;;;;0.82;0.70;;;;;;;4.79;100.00;97401.34;4454974;32;20389;-67
2023/01/10 04:26:13;;;;;;;1.52;0.90;;;;;;;4.78;100.00;97394.53;4454562;32;20109;-67
2023/01/10 04:28:40;;;;;;;0.82;0.70;;;;;;;4.67;100.00;97392.03;4454726;32;20125;-67
2023/01/10 04:31:07;;;;;;;1.95;1.25;;;;;;;4.71;100.00;97380.44;4454652;32;20147;-67
2023/01/10 04:33:34;;;;;;;1.10;0.80;;;;;;;4.66;100.00;97389.59;4454754;32;20101;-67
2023/01/10 04:36:01;;;;;;;1.62;0.93;;;;;;;4.65;100.00;97399.16;4454759;32;20421;-67
2023/01/10 04:38:29;;;;;;;1.17;0.80;;;;;;;4.59;100.00;97407.47;4454704;32;20105;-67
2023/01/10 04:40:56;;;;;;;1.05;0.90;;;;;;;4.57;100.00;97417.13;4454598;32;20085;-67
2023/01/10 04:43:24;;;;;;;2.35;1.33;;;;;;;4.66;100.00;97413.72;4454599;32;20147;-67
2023/01/10 04:45:51;;;;;;;1.33;1.08;;;;;;;4.68;100.00;97426.56;4454887;32;20136;-67
2023/01/10 04:48:18;;;;;;;2.03;1.23;;;;;;;4.64;100.00;97436.41;4454612;32;20474;-67
2023/01/10 04:50:50;;;;;;;1.67;0.95;;;;;;;4.60;100.00;97429.84;4454530;32;20156;-67
2023/01/10 04:53:17;;;;;;;1.77;1.27;;;;;;;4.60;100.00;97441.06;4454341;32;20430;-67
2023/01/10 04:55:45;;;;;;;1.20;0.95;;;;;;;4.52;100.00;97455.63;4454460;32;20109;-67
2023/01/10 04:58:12;;;;;;;1.20;0.88;;;;;;;4.44;100.00;97457.09;4454464;32;20152;-67
2023/01/10 05:00:40;;;;;;;1.95;1.33;;;;;;;4.55;100.00;97470.91;4454411;32;20097;-67
2023/01/10 05:03:07;;;;;;;1.83;1.20;;;;;;;4.53;100.00;97463.28;4454537;32;20158;-67
2023/01/10 05:05:34;;;;;;;1.98;1.10;;;;;;;4.51;100.00;97466.94;4454456;32;20105;-67
2023/01/10 05:08:01;;;;;;;1.02;0.77;;;;;;;4.58;100.00;97476.66;4454581;32;20093;-67
2023/01/10 05:10:29;;;;;;;1.77;1.37;;;;;;;4.58;100.00;97478.44;4454128;32;20093;-67
2023/01/10 05:12:56;;;;;;;2.25;1.65;;;;;;;4.57;100.00;97481.97;4453784;32;20123;-67
2023/01/10 05:15:23;;;;;;;4.80;1.00;;;;;;;4.51;100.00;97485.94;4454478;32;20706;-67
2023/01/10 05:17:56;;;;;;;2.22;1.02;;;;;;;4.53;100.00;97496.97;4454354;32;20085;-69
2023/01/10 05:20:24;;;;;;;1.17;1.00;;;;;;;4.54;100.00;97513.34;4454426;32;20077;-67
2023/01/10 05:22:51;;;;;;;1.55;1.00;;;;;;;4.59;100.00;97506.84;4454259;32;20159;-67
2023/01/10 05:25:18;;;;;;;1.58;1.00;;;;;;;4.52;100.00;97495.34;4454414;32;20151;-68
2023/01/10 05:27:45;;;;;;;1.10;1.00;;;;;;;4.53;100.00;97506.53;4454342;32;20132;-67
2023/01/10 05:30:13;;;;;;;0.82;0.60;;;;;;;4.50;100.00;97492.06;4454305;32;20076;-68
2023/01/10 05:32:40;;;;;;;2.42;0.98;;;;;;;4.47;100.00;97513.06;4454031;32;20085;-67
2023/01/10 05:35:08;;;;;;;1.25;0.80;;;;;;;4.52;100.00;97495.34;4452761;32;20152;-68
2023/01/10 05:37:35;;;;;;;1.30;0.82;;;;;;;4.53;100.00;97496.16;4452626;32;20532;-67
2023/01/10 05:40:04;;;;;;;1.48;0.95;;;;;;;4.47;100.00;97500.09;4453039;32;20098;-67
2023/01/10 05:42:31;;;;;;;1.08;0.80;;;;;;;4.40;100.00;97499.78;4452486;32;20705;-67
2023/01/10 05:44:59;;;;;;;0.98;0.85;;;;;;;4.45;100.00;97501.97;4453330;32;20148;-67
2023/01/10 05:47:26;;;;;;;2.80;0.82;;;;;;;4.32;100.00;97493.63;4453867;32;20164;-67
2023/01/10 05:49:53;;;;;;;1.67;1.00;;;;;;;4.32;100.00;97493.63;4453805;32;20101;-67
2023/01/10 05:52:20;;;;;;;1.75;0.90;;;;;;;4.32;100.00;97494.44;4452597;32;20096;-67
2023/01/10 05:54:48;;;;;;;1.30;0.85;;;;;;;4.40;100.00;97506.75;4452241;32;20182;-67
2023/01/10 05:57:15;;;;;;;1.17;0.70;;;;;;;4.28;100.00;97500.00;4451452;32;20161;-67
2023/01/10 05:59:42;;;;;;;1.27;0.90;;;;;;;4.25;100.00;97511.44;4452998;32;20588;-67
2023/01/10 06:02:09;;;;;;;1.02;0.85;;;;;;;4.23;100.00;97526.31;4451665;32;20121;-67
2023/01/10 06:04:37;;;;;;;1.00;0.80;;;;;;;4.24;100.00;97523.59;4450980;32;20105;-67
2023/01/10 06:07:04;;;;;;;0.57;0.52;;;;;;;4.26;100.00;97519.09;4449496;32;20482;-68
2023/01/10 06:09:31;;;;;;;1.17;0.73;;;;;;;4.25;100.00;97532.19;4448559;32;20115;-68
2023/01/10 06:11:59;;;;;;;1.80;0.90;;;;;;;4.20;100.00;97542.13;4439690;32;20155;-68
2023/01/10 06:14:26;;;;;;;3.62;1.00;;;;;;;4.03;100.00;97536.56;4438930;32;20096;-68
2023/01/10 06:16:53;;;;;;;1.45;0.75;;;;;;;4.04;100.00;97547.75;4449107;32;20101;-68
2023/01/10 06:19:20;;;;;;;5.43;0.80;;;;;;;4.02;100.00;97554.81;4450470;32;20453;-68
2023/01/10 06:21:47;;;;;;;1.02;0.90;;;;;;;4.06;100.00;97562.22;4451828;32;20154;-68
2023/01/10 06:24:14;;;;;;;1.52;0.85;;;;;;;4.19;100.00;97561.22;4451715;32;20142;-68
2023/01/10 06:26:42;;;;;;;2.25;1.40;;;;;;;4.20;100.00;97565.44;4449187;32;20522;-67
2023/01/10 06:29:09;;;;;;;1.45;0.85;;;;;;;4.12;100.00;97578.19;4450250;32;20095;-68
2023/01/10 06:31:36;;;;;;;0.98;0.88;;;;;;;4.13;100.00;97578.06;4450870;32;20166;-68
2023/01/10 06:34:03;;;;;;;2.17;1.05;;;;;;;4.07;100.00;97574.25;4450225;32;20157;-69
2023/01/10 06:36:30;;;;;;;1.12;0.98;;;;;;;4.04;100.00;97592.63;4450277;32;20097;-69
2023/01/10 06:38:58;;;;;;;4.45;0.90;;;;;;;3.94;100.00;97589.12;4448629;32;20100;-68
2023/01/10 06:41:25;;;;;;;2.65;1.27;;;;;;;3.95;100.00;97585.63;4450959;32;20108;-69
2023/01/10 06:43:52;;;;;;;1.95;0.75;;;;;;;4.03;100.00;97583.22;4450919;32;20242;-67
2023/01/10 06:46:19;;;;;;;1.40;0.80;;;;;;;4.12;100.00;97588.56;4433447;32;20105;-70
2023/01/10 06:48:47;;;;;;;2.00;1.20;;;;;;;3.98;100.00;97577.59;4449992;32;20156;-70
2023/01/10 06:51:15;;;;;;;1.55;1.05;;;;;;;3.98;100.00;97580.19;4451361;32;20149;-71
2023/01/10 06:53:46;;;;;;;1.83;1.50;;;;;;;3.94;100.00;97583.97;4451960;32;20094;-70
2023/01/10 06:56:13;;;;;;;2.40;1.20;;;;;;;3.85;100.00;97579.53;4450158;32;20113;-70
2023/01/10 06:58:40;;;;;;;2.40;0.82;;;;;;;3.87;100.00;97611.31;4451256;32;20096;-70
2023/01/10 07:01:16;;;;;;;2.62;0.80;;;;;;;3.94;100.00;97604.69;4449503;32;20170;-70
2023/01/10 07:03:44;;;;;;;1.55;0.65;;;;;;;3.98;100.00;97608.69;4450126;32;20157;-69
2023/01/10 07:06:11;;;;;;;1.87;0.68;;;;;;;3.94;100.00;97620.22;4450337;32;20119;-70
2023/01/10 07:08:43;;;;;;;1.98;0.77;;;;;;;3.95;100.00;97634.00;4440936;32;20557;-71
2023/01/10 07:11:13;;;;;;;2.25;0.80;;;;;;;3.80;100.00;97629.13;4445365;32;20112;-70
2023/01/10 07:13:40;;;;;;;1.05;0.90;;;;;;;3.88;100.00;97650.03;4445996;32;20192;-70
2023/01/10 07:16:10;;;;;;;1.15;0.75;;;;;;;3.95;100.00;97659.91;4449390;32;20123;-70
2023/01/10 07:18:40;;;;;;;0.93;0.65;;;;;;;3.76;100.00;97663.16;4445909;32;20104;-70
2023/01/10 07:21:08;;;;;;;1.35;0.88;;;;;;;3.89;100.00;97674.16;4445812;32;20097;-69
2023/01/10 07:23:35;;;;;;;2.00;1.10;;;;;;;3.91;100.00;97672.31;4441881;32;20097;-69
2023/01/10 07:26:04;;;;;;;1.10;0.80;;;;;;;3.85;100.00;97672.78;4448058;32;20206;-69
2023/01/10 07:28:33;;;;;;;1.05;0.77;;;;;;;3.84;100.00;97673.72;4445974;32;20089;-70
2023/01/10 07:31:02;;;;;;;2.70;1.35;;;;;;;3.76;100.00;97678.69;4447764;32;20130;-71
2023/01/10 07:33:30;;;;;;;1.80;0.93;;;;;;;3.82;100.00;97691.97;4444105;32;21035;-70
2023/01/10 07:35:58;;;;;;;1.40;0.90;;;;;;;3.73;100.00;97693.53;4448672;32;20167;-70
2023/01/10 07:38:25;;;;;;;1.98;1.27;;;;;;;3.80;100.00;97698.22;4444520;32;20092;-70
2023/01/10 07:41:01;;;;;;;1.65;0.90;;;;;;;3.86;100.00;97697.72;4448606;32;20146;-70
2023/01/10 07:43:31;;;;;;;1.95;1.40;;;;;;;3.90;100.00;97699.97;4448068;32;20085;-71
2023/01/10 07:46:02;;;;;;;0.70;0.60;;;;;;;3.96;100.00;97701.25;4450101;32;20104;-71
2023/01/10 07:48:30;;;;;;;1.17;0.62;;;;;;;3.84;100.00;97704.81;4449320;32;20088;-72
2023/01/10 07:50:58;;;;;;;1.05;0.75;;;;;;;3.87;100.00;97726.09;4429559;32;20871;-70
2023/01/10 07:53:27;;;;;;;1.67;0.88;;;;;;;3.88;100.00;97734.72;4448050;32;20172;-70
2023/01/10 07:55:58;;;;;;;1.00;0.70;;;;;;;3.87;100.00;97746.03;4441113;32;20125;-70
2023/01/10 07:58:26;;;;;;;1.10;0.80;;;;;;;3.87;100.00;97736.47;4448735;32;20128;-70
2023/01/10 08:01:00;;;;;;;1.90;0.80;;;;;;;3.85;100.00;97755.69;4447486;32;20152;-71
2023/01/10 08:03:28;;;;;;;;;;;;;;;3.94;100.00;97756.72;4445558;32;20549;-71
2023/01/10 08:06:00;;;;;;;1.10;0.85;;;;;;;3.86;100.00;97757.31;4448006;32;20023;-70
2023/01/10 08:08:27;;;;;;;1.95;1.00;;;;;;;4.04;100.00;97758.50;4446354;32;20187;-71
2023/01/10 08:10:55;;;;;;;2.08;1.17;;;;;;;3.93;100.00;97762.88;4444271;32;20105;-71
2023/01/10 08:13:22;;;;;;;2.17;1.02;;;;;;;3.94;100.00;97775.69;4447675;32;20155;-69
2023/01/10 08:15:51;;;;;;;2.37;1.15;;;;;;;4.00;100.00;97780.41;4440328;32;20117;-70
2023/01/10 08:18:20;;;;;;;2.40;1.05;;;;;;;3.97;100.00;97775.47;4447023;32;20077;-71
2023/01/10 08:20:51;;;;;;;1.23;1.00;;;;;;;3.97;100.00;97803.97;4448840;32;20112;-69
2023/01/10 08:23:20;;;;;;;1.10;0.62;;;;;;;3.99;100.00;97789.09;4444540;32;20123;-69
2023/01/10 08:25:48;;;;;;;2.28;0.70;;;;;;;4.00;100.00;97811.50;4443952;32;20527;-69
2023/01/10 08:28:15;;;;;;;0.80;0.60;;;;;;;4.04;100.00;97819.84;4444919;32;20421;-71
2023/01/10 08:30:43;;;;;;;1.27;0.80;;;;;;;4.06;100.00;97836.13;4452442;32;20170;-71
2023/01/10 08:33:11;;;;;;;0.68;0.50;;;;;;;4.01;100.00;97831.28;4446268;32;20094;-71
2023/01/10 08:35:42;;;;;;;0.80;0.80;;;;;;;3.99;100.00;97840.12;4448235;32;20605;-70
2023/01/10 08:38:10;;;;;;;3.10;0.90;;;;;;;3.97;100.00;97832.47;4449332;32;20689;-72
2023/01/10 08:40:37;;;;;;;0.82;0.68;;;;;;;4.01;100.00;97833.88;4449421;32;20161;-70
2023/01/10 08:43:06;;;;;;;1.45;0.85;;;;;;;3.98;100.00;97867.81;4447374;32;20113;-70
2023/01/10 08:45:34;;;;;;;2.05;0.77;;;;;;;3.85;100.00;97844.59;4452213;32;20105;-70
2023/01/10 08:48:02;;;;;;;1.12;0.75;;;;;;;3.96;100.00;97864.50;4453894;32;20489;-70
2023/01/10 08:50:30;;;;;;;1.25;0.50;;;;;;;3.89;100.00;97845.16;4452278;32;20112;-71
2023/01/10 08:52:58;;;;;;;1.48;0.62;;;;;;;3.86;100.00;97858.34;4452611;32;20155;-71
2023/01/10 08:55:26;;;;;;;5.28;0.80;;;;;;;3.90;100.00;97860.59;4453583;32;20127;-72
2023/01/10 08:57:53;;;;;;;2.25;0.82;;;;;;;3.87;100.00;97868.59;4449963;32;20149;-71
2023/01/10 09:00:21;;;;;;;1.33;0.60;;;;;;;3.93;100.00;97866.50;4451259;32;20140;-73
2023/01/10 09:02:48;;;;;;;1.35;0.85;;;;;;;3.92;100.00;97873.44;4453903;32;20163;-72
2023/01/10 09:05:15;;;;;;;0.80;0.50;;;;;;;3.95;100.00;97867.22;4456642;32;20151;-72
2023/01/10 09:08:00;;;;;;;0.98;0.40;;;;;;;3.95;100.00;97880.16;4456940;32;20148;-72
2023/01/10 09:10:28;;;;;;;0.75;0.60;;;;;;;4.01;100.00;97911.63;4452687;32;20140;-72
2023/01/10 09:12:58;;;;;;;0.93;0.40;;;;;;;4.04;100.00;97911.41;4454103;32;20136;-72
2023/01/10 09:15:31;;;;;;;3.83;0.90;;;;;;;3.98;100.00;97900.66;4450069;32;20210;-71
2023/01/10 09:18:01;;;;;;;0.90;0.47;;;;;;;3.99;100.00;97923.03;4447269;32;20092;-71
2023/01/10 09:20:28;;;;;;;1.85;0.65;;;;;;;3.95;100.00;97919.87;4451517;32;20109;-71
2023/01/10 09:22:56;;;;;;;0.95;0.65;;;;;;;4.02;100.00;97928.00;4449292;32;20518;-70
2023/01/10 09:25:23;;;;;;;1.33;0.70;;;;;;;3.95;100.00;97912.09;4448488;32;20112;-70
2023/01/10 09:28:01;;;;;;;1.45;0.77;;;;;;;3.86;100.00;97923.13;4450787;32;20157;-71
2023/01/10 09:30:29;;;;;;;0.45;0.40;;;;;;;3.91;100.00;97932.22;4447401;32;20093;-72
2023/01/10 09:32:57;;;;;;;1.10;0.57;;;;;;;3.93;100.00;97952.84;4449552;32;20097;-72
2023/01/10 09:35:26;;;;;;;2.33;0.60;;;;;;;3.91;100.00;97954.72;4447459;32;20093;-72
2023/01/10 09:37:54;;;;;;;1.30;0.45;;;;;;;3.95;100.00;97952.72;4450011;32;20098;-72
2023/01/10 09:40:50;;;;;;;2.70;0.52;;;;;;;3.84;100.00;97945.75;4432369;32;20101;-72
2023/01/10 09:43:48;;;;;;;0.30;0.20;;;;;;;3.92;100.00;97969.31;4449826;32;20115;-71
2023/01/10 09:46:24;;;;;;;1.45;0.57;;;;;;;3.83;100.00;97972.59;4446692;32;20167;-71
2023/01/10 09:48:58;;;;;;;1.15;0.50;;;;;;;3.81;100.00;97993.44;4447304;32;20128;-71
2023/01/10 09:51:25;;;;;;;0.98;0.47;;;;;;;3.82;100.00;97989.09;4451257;32;20356;-71
2023/01/10 09:53:55;;;;;;;1.65;0.68;;;;;;;3.81;100.00;97992.62;4458851;32;20536;-72
2023/01/10 09:56:39;;;;;;;2.33;0.77;;;;;;;3.93;100.00;98012.44;4444557;32;20170;-72
2023/01/10 09:59:18;;;;;;;1.12;0.70;;;;;;;3.86;100.00;97993.94;4446644;32;20115;-72
2023/01/10 10:01:47;;;;;;;1.23;0.65;;;;;;;3.92;100.00;98005.59;4449536;32;20104;-71
2023/01/10 10:04:26;;;;;;;0.70;0.50;;;;;;;3.90;100.00;98000.53;4435958;32;20164;-71
2023/01/10 10:06:53;;;;;;;0.82;0.50;;;;;;;3.96;100.00;98009.59;4428063;32;20163;-71
2023/01/10 10:09:28;;;;;;;2.55;1.10;;;;;;;3.97;100.00;98013.06;4451307;32;20145;-71
2023/01/10 10:12:37;;;;;;;1.58;0.82;;;;;;;3.97;100.00;98011.28;4447761;32;20533;-72
2023/01/10 10:15:29;;;;;;;1.40;0.75;;;;;;;4.09;100.00;98012.94;4431066;32;20153;-70
2023/01/10 10:18:07;;;;;;;1.42;0.75;;;;;;;4.00;100.00;98008.44;4448028;32;20500;-72
2023/01/10 10:20:53;;;;;;;2.05;0.60;;;;;;;4.10;100.00;98013.75;4449639;32;20180;-72
2023/01/10 10:23:59;;;;;;;1.00;0.90;;;;;;;4.06;100.00;98010.59;4448569;32;20101;-73
2023/01/10 10:26:33;;;;;;;0.40;0.40;;;;;;;4.09;100.00;98005.16;4379349;32;20153;-71
2023/01/10 10:29:21;;;;;;;1.23;0.80;;;;;;;4.04;100.00;98017.66;4386443;32;20656;-72
2023/01/10 10:31:55;;;;;;;1.15;0.60;;;;;;;4.09;100.00;98019.91;4387619;32;20606;-72
2023/01/10 10:34:27;;;;;;;0.70;0.50;;;;;;;4.06;100.00;98009.75;4397252;32;20181;-73
2023/01/10 10:37:23;;;;;;;1.85;0.50;;;;;;;4.08;100.00;98016.47;4375421;32;20110;-72
2023/01/10 10:40:02;;;;;;;1.23;0.60;;;;;;;4.04;100.00;98022.84;4371237;32;20169;-72
2023/01/10 10:42:37;;;;;;;0.98;0.60;;;;;;;4.12;100.00;98031.78;4387961;32;20166;-73
2023/01/10 10:45:06;;;;;;;0.60;0.50;;;;;;;4.14;100.00;98024.75;4384516;32;20110;-72
2023/01/10 10:47:35;;;;;;;0.40;0.40;;;;;;;4.24;100.00;98038.66;4381125;32;20134;-73
2023/01/10 10:50:14;;;;;;;1.27;0.70;;;;;;;4.23;100.00;98029.22;4385441;32;20184;-71
2023/01/10 10:52:43;;;;;;;0.98;0.70;;;;;;;4.17;100.00;98040.06;4377441;32;20091;-72
2023/01/10 10:55:16;;;;;;;0.32;0.30;;;;;;;4.19;100.00;98053.72;4383157;32;20777;-70
2023/01/10 10:57:45;;;;;;;1.95;0.70;;;;;;;4.20;100.00;98040.66;4386115;32;20174;-71
2023/01/10 11:00:27;;;;;;;0.57;0.55;;;;;;;4.35;100.00;98046.44;4381043;32;20168;-71
2023/01/10 11:03:00;;;;;;;0.73;0.40;;;;;;;4.30;100.00;98061.53;4410244;32;20210;-70
2023/01/10 11:05:39;;;;;;;1.02;0.60;;;;;;;4.13;100.00;98056.78;4437394;32;20131;-71
2023/01/10 11:08:12;;;;;;;0.73;0.65;;;;;;;4.23;100.00;98062.94;4439295;32;20146;-71
2023/01/10 11:10:42;;;;;;;3.22;0.85;;;;;;;4.24;100.00;98069.78;4449225;32;20500;-71
2023/01/10 11:13:33;;;;;;;1.12;0.47;;;;;;;4.24;100.00;98064.59;4444171;32;20150;-71
2023/01/10 11:16:02;;;;;;;0.75;0.50;;;;;;;4.21;100.00;98072.56;4453173;32;20097;-70
2023/01/10 11:18:31;;;;;;;0.85;0.40;;;;;;;4.06;100.00;98079.75;4435001;32;20116;-70
2023/01/10 11:21:01;;;;;;;0.35;0.28;;;;;;;4.22;100.00;98085.44;4453272;32;20124;-71
2023/01/10 11:23:53;;;;;;;0.82;0.55;;;;;;;4.20;100.00;98091.69;4437760;32;20115;-71
2023/01/10 11:26:23;;;;;;;0.60;0.50;;;;;;;4.12;100.00;98094.84;4423589;32;20181;-71
2023/01/10 11:29:02;;;;;;;0.70;0.50;;;;;;;4.21;100.00;98101.94;4450354;32;20093;-71
2023/01/10 11:31:31;;;;;;;0.82;0.50;;;;;;;4.11;100.00;98115.69;4447780;32;20124;-71
2023/01/10 11:33:59;;;;;;;1.02;0.43;;;;;;;4.17;100.00;98117.84;4436025;32;20148;-71
2023/01/10 11:36:26;;;;;;;1.02;0.57;;;;;;;4.25;100.00;98125.84;4436529;32;20166;-72
2023/01/10 11:39:02;;;;;;;2.97;0.50;;;;;;;4.22;100.00;98134.72;4449606;32;20148;-72
2023/01/10 11:41:33;;;;;;;1.25;0.45;;;;;;;4.21;100.00;98130.44;4446240;32;20172;-72
2023/01/10 11:44:21;;;;;;;0.65;0.60;;;;;;;4.20;100.00;98126.19;4448986;32;20160;-71
2023/01/10 11:46:49;;;;;;;0.50;0.40;;;;;;;4.16;100.00;98119.56;4448478;32;20093;-71
2023/01/10 11:49:40;;;;;;;0.88;0.47;;;;;;;4.19;100.00;98134.09;4451092;32;20643;-72
2023/01/10 11:52:24;;;;;;;4.37;0.60;;;;;;;4.19;100.00;98145.28;4443224;32;20114;-72
2023/01/10 11:54:55;;;;;;;0.50;0.37;;;;;;;4.32;100.00;98149.59;4432473;32;20093;-70
2023/01/10 11:57:26;;;;;;;0.90;0.52;;;;;;;4.39;100.00;98132.63;4446734;32;20159;-71
2023/01/10 11:59:56;;;;;;;2.50;0.77;;;;;;;4.39;100.00;98117.91;4450363;32;20105;-71